Time;durP1;ratioP1;P1;durP2;ratioP2;P2;SDS_P1;SDS_P2;PMS_P1;PMS_P2;Temp;Humidity;BMP_temperature;BMP_pressure;BME280_temperature;BME280_humidity;BME280_pressure;Samples;Min_cycle;Max_cycle;Signal;HPM_P1;HPM_P2
2021/07/21 00:01:43;;;;;;;;;14.50;13.25;;;;;22.60;55.15;101709.19;5013449;28;45696;-67
2021/07/21 00:04:08;;;;;;;;;18.25;15.25;;;;;22.56;55.40;101706.09;5016708;28;47667;-68
2021/07/21 00:06:33;;;;;;;;;15.25;13.00;;;;;22.53;55.63;101704.63;5012648;28;45520;-65
2021/07/21 00:08:59;;;;;;;;;18.00;15.75;;;;;22.48;55.06;101707.13;5007314;28;45951;-69
2021/07/21 00:14:20;;;;;;;;;17.00;13.75;;;;;22.45;55.47;101695.91;4999818;28;45466;-75
2021/07/21 00:17:16;;;;;;;;;18.25;17.00;;;;;22.40;55.29;101699.22;5008968;28;45587;-75
2021/07/21 00:22:19;;;;;;;;;18.00;14.50;;;;;22.36;55.56;101687.22;5004774;28;45471;-70
2021/07/21 00:24:45;;;;;;;;;18.75;15.00;;;;;22.34;55.73;101686.59;5019055;28;46432;-67
2021/07/21 00:27:11;;;;;;;;;17.50;15.25;;;;;22.30;55.75;101688.88;5016953;28;45515;-75
2021/07/21 00:29:37;;;;;;;;;17.75;15.50;;;;;22.28;55.65;101692.81;5007996;28;45491;-69
2021/07/21 00:32:03;;;;;;;;;19.00;14.00;;;;;22.26;55.99;101697.56;5005691;28;45349;-68
2021/07/21 00:34:29;;;;;;;;;13.00;13.00;;;;;22.23;55.65;101698.78;5007757;28;46437;-75
2021/07/21 00:36:54;;;;;;;;;16.25;13.25;;;;;22.20;56.08;101704.56;5022618;28;45555;-73
2021/07/21 00:39:20;;;;;;;;;18.50;14.00;;;;;22.19;56.09;101707.44;5012863;28;45575;-74
2021/07/21 00:41:46;;;;;;;;;19.00;15.00;;;;;22.16;56.12;101713.25;5012314;28;49304;-68
2021/07/21 00:44:12;;;;;;;;;15.50;15.00;;;;;22.12;56.22;101702.84;5015438;28;46279;-67
2021/07/21 00:46:37;;;;;;;;;19.75;16.00;;;;;22.10;56.53;101712.16;5011513;28;45459;-68
2021/07/21 00:49:03;;;;;;;;;16.00;12.00;;;;;22.07;56.69;101713.41;5023189;28;45573;-73
2021/07/21 00:51:28;;;;;;;;;19.75;15.25;;;;;22.05;56.46;101704.69;5020203;28;45623;-68
2021/07/21 00:53:54;;;;;;;;;15.00;12.00;;;;;22.03;57.03;101708.63;5017584;28;46134;-66
2021/07/21 00:56:19;;;;;;;;;23.00;16.25;;;;;22.02;56.56;101706.97;5016476;28;45572;-67
2021/07/21 00:58:45;;;;;;;;;15.50;13.00;;;;;22.01;56.63;101706.16;5017825;28;45540;-68
2021/07/21 01:01:10;;;;;;;;;20.75;16.25;;;;;21.98;56.44;101703.84;5018151;28;45535;-68
2021/07/21 01:03:36;;;;;;;;;15.25;13.00;;;;;21.96;56.64;101714.00;5020161;28;46210;-68
2021/07/21 01:06:03;;;;;;;;;19.75;18.25;;;;;21.96;56.74;101707.75;5007806;28;45501;-65
2021/07/21 01:08:29;;;;;;;;;19.50;16.75;;;;;21.94;56.64;101705.28;5013992;28;45574;-69
2021/07/21 01:11:16;;;;;;;;;15.50;14.50;;;;;21.91;56.69;101700.31;5015687;28;45831;-68
2021/07/21 01:14:01;;;;;;;;;18.25;16.00;;;;;21.91;56.63;101711.06;5008320;28;46559;-73
2021/07/21 01:16:33;;;;;;;;;16.75;14.50;;;;;21.88;58.11;101709.63;4999900;28;45612;-74
2021/07/21 01:19:04;;;;;;;;;17.00;16.25;;;;;21.87;57.06;101716.00;5023821;28;45921;-68
2021/07/21 01:21:57;;;;;;;;;19.00;13.25;;;;;21.86;57.16;101713.53;5016220;28;45485;-68
2021/07/21 01:24:43;;;;;;;;;15.00;15.00;;;;;21.84;56.96;101711.03;5018623;28;46220;-64
2021/07/21 01:27:24;;;;;;;;;16.75;14.50;;;;;21.81;56.84;101705.22;5003789;28;45574;-64
2021/07/21 01:29:54;;;;;;;;;21.50;15.50;;;;;21.80;57.69;101711.63;5006921;28;45553;-66
2021/07/21 01:32:23;;;;;;;;;15.00;13.00;;;;;21.77;58.28;101709.34;5010133;28;45497;-73
2021/07/21 01:34:51;;;;;;;;;18.75;16.00;;;;;21.73;57.58;101710.78;5020604;28;46356;-68
2021/07/21 01:37:19;;;;;;;;;17.25;15.50;;;;;21.70;57.51;101714.69;5020954;28;45708;-74
2021/07/21 01:39:47;;;;;;;;;17.00;15.50;;;;;21.65;58.87;101717.97;5018917;28;45973;-69
2021/07/21 01:42:16;;;;;;;;;15.75;14.00;;;;;21.63;58.31;101709.28;5007240;28;45593;-69
2021/07/21 01:44:44;;;;;;;;;15.00;14.75;;;;;21.57;58.96;101715.47;5014788;28;46502;-69
2021/07/21 01:47:12;;;;;;;;;19.50;17.50;;;;;21.53;59.71;101713.34;5004510;28;45472;-74
2021/07/21 01:49:39;;;;;;;;;17.00;14.00;;;;;21.47;59.31;101712.31;5021168;28;45797;-68
2021/07/21 01:52:10;;;;;;;;;17.75;15.25;;;;;21.44;59.76;101715.41;5022290;28;45556;-68
2021/07/21 01:54:37;;;;;;;;;18.75;14.50;;;;;21.40;59.02;101712.25;5020142;28;46254;-69
2021/07/21 01:57:04;;;;;;;;;19.50;16.50;;;;;21.37;58.94;101719.88;5008963;28;45570;-74
2021/07/21 01:59:30;;;;;;;;;15.75;15.00;;;;;21.33;59.09;101722.09;5013776;28;45512;-65
2021/07/21 02:02:02;;;;;;;;;17.50;14.25;;;;;21.30;59.85;101719.81;5019274;28;45473;-68
2021/07/21 02:04:29;;;;;;;;;21.25;15.50;;;;;21.29;59.32;101720.00;5020309;28;45559;-67
2021/07/21 02:06:54;;;;;;;;;17.25;15.50;;;;;21.26;59.15;101727.44;5023285;28;45486;-75
2021/07/21 02:09:23;;;;;;;;;18.75;15.50;;;;;21.25;59.17;101725.78;5018605;28;45430;-64
2021/07/21 02:11:48;;;;;;;;;16.50;14.25;;;;;21.24;59.27;101726.81;5010209;28;45528;-65
2021/07/21 02:14:15;;;;;;;;;23.25;15.75;;;;;21.23;59.71;101730.50;5016684;28;45469;-68
2021/07/21 02:16:42;;;;;;;;;18.25;14.25;;;;;21.20;60.04;101728.22;5014816;28;45653;-68
2021/07/21 02:19:08;;;;;;;;;22.25;16.00;;;;;21.19;59.37;101723.03;5020733;28;45471;-69
2021/07/21 02:21:39;;;;;;;;;18.25;14.50;;;;;21.16;59.68;101724.25;5013341;28;45601;-69
2021/07/21 02:24:06;;;;;;;;;18.50;15.50;;;;;21.14;59.55;101731.69;5005120;28;46532;-65
2021/07/21 02:26:37;;;;;;;;;18.00;14.50;;;;;21.13;59.25;101726.50;5015099;28;45678;-65
2021/07/21 02:29:04;;;;;;;;;15.00;14.50;;;;;21.10;59.65;101725.03;5011459;28;45676;-67
2021/07/21 02:31:36;;;;;;;;;20.75;15.00;;;;;21.09;59.67;101725.22;5006576;28;45590;-68
2021/07/21 02:34:03;;;;;;;;;16.00;15.00;;;;;21.08;59.53;101737.00;5007331;28;45515;-67
2021/07/21 02:36:30;;;;;;;;;17.00;14.00;;;;;21.04;59.46;101732.03;5013385;28;45626;-66
2021/07/21 02:38:55;;;;;;;;;19.25;14.00;;;;;21.02;60.83;101739.47;4999986;28;45573;-64
2021/07/21 02:41:21;;;;;;;;;21.50;18.25;;;;;21.00;61.36;101729.94;5005586;28;45493;-73
2021/07/21 02:43:46;;;;;;;;;17.50;15.50;;;;;20.97;61.01;101727.63;5016266;28;46394;-68
2021/07/21 02:46:12;;;;;;;;;20.00;16.25;;;;;20.95;61.48;101727.00;5020125;28;45751;-75
2021/07/21 02:48:41;;;;;;;;;15.25;14.25;;;;;20.93;60.58;101721.81;5020122;28;45528;-65
2021/07/21 02:51:47;;;;;;;;;16.25;14.00;;;;;20.92;61.13;101719.28;5015075;28;45477;-75
2021/07/21 02:54:18;;;;;;;;;16.50;16.25;;;;;20.91;60.84;101723.03;5002596;28;45591;-66
2021/07/21 02:56:50;;;;;;;;;17.00;14.00;;;;;20.89;60.33;101722.38;5005891;28;45531;-66
2021/07/21 02:59:18;;;;;;;;;24.00;19.00;;;;;20.86;60.54;101723.59;5002962;28;45572;-67
2021/07/21 03:01:48;;;;;;;;;16.50;14.00;;;;;20.86;60.33;101725.47;5020138;28;45717;-69
2021/07/21 03:04:18;;;;;;;;;18.75;18.50;;;;;20.84;60.57;101728.31;5018918;28;46935;-68
2021/07/21 03:06:46;;;;;;;;;17.00;15.25;;;;;20.81;61.13;101724.19;5013867;28;45724;-67
2021/07/21 03:09:13;;;;;;;;;15.25;13.50;;;;;20.78;60.81;101727.25;5000250;28;49941;-69
2021/07/21 03:11:42;;;;;;;;;21.50;17.25;;;;;20.75;61.29;101724.13;5005742;28;45872;-74
2021/07/21 03:14:08;;;;;;;;;18.75;17.75;;;;;20.70;62.32;101724.72;5015258;28;45585;-69
2021/07/21 03:16:36;;;;;;;;;18.00;15.25;;;;;20.67;61.97;101725.06;5019320;28;45752;-66
2021/07/21 03:19:05;;;;;;;;;19.75;16.25;;;;;20.64;61.75;101730.84;5021475;28;46020;-68
2021/07/21 03:21:33;;;;;;;;;18.25;15.50;;;;;20.60;61.96;101734.94;5008589;28;45636;-72
2021/07/21 03:24:00;;;;;;;;;21.50;17.75;;;;;20.56;63.08;101741.72;5009089;28;47374;-71
2021/07/21 03:26:31;;;;;;;;;17.25;16.25;;;;;20.51;62.99;101738.72;5015044;28;45567;-70
2021/07/21 03:28:57;;;;;;;;;28.00;18.50;;;;;20.47;62.94;101740.94;5017466;28;45725;-66
2021/07/21 03:31:23;;;;;;;;;19.25;15.50;;;;;20.40;62.89;101740.91;5016642;28;45728;-65
2021/07/21 03:34:00;;;;;;;;;19.00;17.25;;;;;20.37;62.68;101740.44;5022106;28;45690;-65
2021/07/21 03:36:28;;;;;;;;;19.25;17.75;;;;;20.34;63.76;101738.13;5008135;28;45575;-71
2021/07/21 03:38:57;;;;;;;;;18.00;16.50;;;;;20.31;64.45;101741.22;5010024;28;45587;-68
2021/07/21 03:41:24;;;;;;;;;23.00;19.00;;;;;20.27;63.75;101746.09;5011162;28;45814;-67
2021/07/21 03:43:51;;;;;;;;;20.75;18.00;;;;;20.24;64.00;101751.84;5018517;28;45644;-67
2021/07/21 03:46:18;;;;;;;;;24.75;20.75;;;;;20.22;63.73;101748.53;5019497;28;45565;-66
2021/07/21 03:48:44;;;;;;;;;20.75;19.25;;;;;20.18;64.67;101753.44;5012416;28;45527;-67
2021/07/21 03:51:12;;;;;;;;;17.25;16.50;;;;;20.16;64.26;101743.94;5013484;28;45585;-64
2021/07/21 03:53:38;;;;;;;;;26.50;20.75;;;;;20.12;64.27;101737.25;5012705;28;46604;-67
2021/07/21 03:56:04;;;;;;;;;25.75;19.00;;;;;20.09;64.05;101751.06;5015656;28;45654;-68
2021/07/21 03:58:30;;;;;;;;;21.25;20.75;;;;;20.05;64.24;101747.91;5017821;28;45660;-64
2021/07/21 04:00:57;;;;;;;;;22.75;19.75;;;;;20.03;65.12;101743.75;5018235;28;45543;-68
2021/07/21 04:03:24;;;;;;;;;24.25;21.25;;;;;20.01;64.73;101752.00;5006780;28;46294;-68
2021/07/21 04:05:54;;;;;;;;;22.25;19.25;;;;;19.98;65.37;101747.84;5009932;28;45500;-72
2021/07/21 04:08:20;;;;;;;;;21.00;19.50;;;;;19.96;65.51;101755.25;5017402;28;45603;-72
2021/07/21 04:10:50;;;;;;;;;24.00;21.25;;;;;19.95;65.30;101752.72;5019495;28;45664;-65
2021/07/21 04:13:17;;;;;;;;;31.75;22.50;;;;;19.94;65.43;101761.81;5022195;28;45675;-71
2021/07/21 04:15:42;;;;;;;;;23.25;20.00;;;;;19.90;64.91;101749.78;5018491;28;45687;-68
2021/07/21 04:18:09;;;;;;;;;22.25;19.75;;;;;19.90;64.48;101757.81;5008104;28;45624;-70
2021/07/21 04:20:34;;;;;;;;;30.75;24.75;;;;;19.90;64.62;101765.88;5011761;28;45455;-70
2021/07/21 04:23:01;;;;;;;;;24.75;21.75;;;;;19.90;65.03;101760.50;5015589;28;46438;-65
2021/07/21 04:25:29;;;;;;;;;22.50;21.75;;;;;19.89;66.29;101762.38;5020364;28;45508;-72
2021/07/21 04:27:56;;;;;;;;;21.00;19.25;;;;;19.88;66.21;101760.72;5024151;28;45503;-71
2021/07/21 04:30:22;;;;;;;;;20.75;19.00;;;;;19.89;66.85;101775.78;5007089;28;45622;-67
2021/07/21 04:32:48;;;;;;;;;23.75;21.75;;;;;19.89;66.54;101770.41;5007090;28;46817;-68
2021/07/21 04:35:16;;;;;;;;;24.75;20.50;;;;;19.91;66.67;101779.13;5019729;28;45955;-67
2021/07/21 04:37:42;;;;;;;;;26.50;22.00;;;;;19.92;67.08;101772.72;5019095;28;45708;-71
2021/07/21 04:40:12;;;;;;;;;25.25;21.50;;;;;19.93;67.45;101769.03;5021899;28;45555;-67
2021/07/21 04:42:37;;;;;;;;;25.75;24.75;;;;;19.97;67.78;101775.66;5020138;28;45721;-67
2021/07/21 04:45:04;;;;;;;;;24.25;21.75;;;;;20.00;68.04;101769.09;5010072;28;45855;-72
2021/07/21 04:47:30;;;;;;;;;25.75;20.50;;;;;20.04;66.27;101773.09;5014431;28;45552;-69
2021/07/21 04:49:59;;;;;;;;;21.50;19.75;;;;;20.08;68.27;101779.75;5018424;28;45485;-72
2021/07/21 04:52:26;;;;;;;;;25.00;23.00;;;;;20.12;66.91;101780.19;5019711;28;45471;-69
2021/07/21 04:54:52;;;;;;;;;22.00;20.50;;;;;20.17;67.65;101783.97;5022184;28;45379;-69
2021/07/21 04:57:18;;;;;;;;;28.00;23.50;;;;;20.24;67.97;101786.75;5021748;28;49943;-69
2021/07/21 04:59:44;;;;;;;;;24.50;20.25;;;;;20.28;66.78;101776.50;5012082;28;45431;-66
2021/07/21 05:02:09;;;;;;;;;22.75;21.00;;;;;20.31;67.72;101779.63;5016228;28;45539;-68
2021/07/21 05:04:35;;;;;;;;;31.50;22.25;;;;;20.37;68.21;101788.75;5003640;28;45560;-68
2021/07/21 05:07:01;;;;;;;;;24.00;20.00;;;;;20.43;68.03;101797.94;5014456;28;45591;-69
2021/07/21 05:09:27;;;;;;;;;31.25;24.50;;;;;20.50;68.75;101798.81;5004016;28;45735;-73
2021/07/21 05:11:52;;;;;;;;;25.50;22.00;;;;;20.57;66.69;101807.81;5006871;28;45491;-73
2021/07/21 05:14:18;;;;;;;;;23.75;20.25;;;;;20.65;66.47;101796.97;5011656;28;45546;-65
2021/07/21 05:16:43;;;;;;;;;28.50;24.25;;;;;20.71;65.15;101796.19;5016078;28;45553;-69
2021/07/21 05:19:11;;;;;;;;;30.25;24.25;;;;;20.76;65.22;101799.13;5022654;28;45628;-71
2021/07/21 05:21:36;;;;;;;;;26.00;22.75;;;;;20.80;64.46;101810.34;5018633;28;46313;-70
2021/07/21 05:24:02;;;;;;;;;29.25;20.50;;;;;20.83;64.67;101810.78;5019121;28;45468;-71
2021/07/21 05:26:27;;;;;;;;;27.00;23.75;;;;;20.87;63.80;101808.56;5016290;28;45517;-67
2021/07/21 05:28:52;;;;;;;;;19.00;19.00;;;;;20.90;63.47;101810.88;5013927;28;55404;-67
2021/07/21 05:31:18;;;;;;;;;33.50;23.00;;;;;20.95;63.34;101818.34;5007714;28;46149;-68
2021/07/21 05:33:43;;;;;;;;;30.00;24.75;;;;;21.02;63.51;101814.69;5017931;28;45623;-71
2021/07/21 05:36:10;;;;;;;;;31.00;24.75;;;;;21.11;63.20;101819.94;5007609;28;45758;-68
2021/07/21 05:38:35;;;;;;;;;29.50;25.75;;;;;21.20;63.19;101826.84;5009251;28;45492;-69
2021/07/21 05:41:01;;;;;;;;;25.00;21.75;;;;;21.27;62.08;101823.19;5000842;28;46436;-69
2021/07/21 05:43:29;;;;;;;;;26.75;20.25;;;;;21.33;61.98;101823.44;5006700;28;45484;-66
2021/07/21 05:45:54;;;;;;;;;26.50;22.25;;;;;21.44;62.03;101831.03;5012128;28;45488;-72
2021/07/21 05:48:20;;;;;;;;;27.50;21.50;;;;;21.55;61.88;101830.47;5004219;28;46626;-73
2021/07/21 05:50:45;;;;;;;;;29.00;22.25;;;;;21.62;61.26;101825.97;5007863;28;46749;-75
2021/07/21 05:53:10;;;;;;;;;31.00;24.75;;;;;21.72;61.69;101830.19;4998734;28;46106;-69
2021/07/21 05:55:36;;;;;;;;;25.50;25.00;;;;;21.76;60.60;101837.66;5003838;28;45940;-74
2021/07/21 05:58:02;;;;;;;;;26.00;22.00;;;;;21.81;60.80;101831.66;5005976;28;45504;-69
2021/07/21 06:00:27;;;;;;;;;28.75;25.25;;;;;21.84;61.39;101831.31;5002352;28;46321;-73
2021/07/21 06:02:53;;;;;;;;;27.75;25.25;;;;;21.91;60.56;101832.19;5003450;28;46037;-73
2021/07/21 06:05:18;;;;;;;;;24.50;22.00;;;;;21.97;60.94;101828.69;5005154;28;45952;-70
2021/07/21 06:07:43;;;;;;;;;26.50;21.50;;;;;22.06;60.61;101835.56;5006969;28;45631;-72
2021/07/21 06:10:09;;;;;;;;;39.50;32.25;;;;;22.13;60.24;101835.59;5017810;28;46175;-66
2021/07/21 06:12:34;;;;;;;;;30.25;25.00;;;;;22.19;60.33;101840.19;5005384;28;45507;-68
2021/07/21 06:15:02;;;;;;;;;26.50;22.50;;;;;22.26;59.96;101848.34;5008420;28;45480;-69
2021/07/21 06:17:28;;;;;;;;;24.50;23.25;;;;;22.31;59.61;101840.47;5012465;28;45962;-66
2021/07/21 06:19:53;;;;;;;;;24.75;23.50;;;;;22.39;59.06;101843.00;5004741;28;45910;-76
2021/07/21 06:22:18;;;;;;;;;30.25;25.75;;;;;22.43;59.30;101844.25;5011285;28;45800;-72
2021/07/21 06:24:45;;;;;;;;;28.50;23.25;;;;;22.57;58.81;101849.69;5021139;28;45437;-67
2021/07/21 06:27:11;;;;;;;;;26.00;22.00;;;;;22.72;59.12;101858.44;5009460;28;45575;-73
2021/07/21 06:29:37;;;;;;;;;29.75;23.25;;;;;22.83;58.72;101862.44;5008666;28;46103;-74
2021/07/21 06:32:03;;;;;;;;;27.50;23.00;;;;;22.91;58.30;101867.63;5005236;28;45611;-68
2021/07/21 06:34:29;;;;;;;;;29.75;23.75;;;;;22.99;57.79;101863.94;5020994;28;45386;-72
2021/07/21 06:36:54;;;;;;;;;26.00;22.75;;;;;23.13;57.41;101871.00;5022804;28;45527;-68
2021/07/21 06:39:19;;;;;;;;;23.75;20.00;;;;;23.24;57.72;101872.25;5007838;28;45613;-68
2021/07/21 06:41:45;;;;;;;;;28.25;24.25;;;;;23.37;57.16;101873.09;5013189;28;45708;-71
2021/07/21 06:44:10;;;;;;;;;29.50;25.75;;;;;23.44;56.25;101872.25;5005704;28;45596;-67
2021/07/21 06:46:35;;;;;;;;;27.50;24.50;;;;;23.48;57.05;101882.44;5012066;28;45507;-72
2021/07/21 06:49:01;;;;;;;;;32.00;24.25;;;;;23.58;56.27;101879.31;5014065;28;45445;-73
2021/07/21 06:51:26;;;;;;;;;25.25;22.75;;;;;23.70;56.26;101880.34;5009652;28;45535;-69
2021/07/21 06:53:51;;;;;;;;;23.50;20.75;;;;;23.86;56.15;101886.38;5001532;28;45855;-73
2021/07/21 06:56:17;;;;;;;;;25.75;24.75;;;;;23.92;55.24;101882.88;5010867;28;45476;-71
2021/07/21 06:58:43;;;;;;;;;27.50;25.00;;;;;24.00;54.93;101886.16;5009201;28;46216;-69
2021/07/21 07:01:08;;;;;;;;;30.50;24.75;;;;;24.11;55.27;101884.69;5018187;28;54142;-72
2021/07/21 07:03:37;;;;;;;;;28.00;24.50;;;;;24.15;54.66;101890.50;5009096;28;45666;-67
2021/07/21 07:06:03;;;;;;;;;31.00;25.25;;;;;24.16;53.30;101886.72;4996867;28;45518;-67
2021/07/21 07:08:30;;;;;;;;;26.75;22.25;;;;;24.17;53.75;101889.22;4997315;28;46540;-66
2021/07/21 07:10:56;;;;;;;;;25.50;21.75;;;;;24.19;54.04;101887.16;5014063;28;45671;-68
2021/07/21 07:13:21;;;;;;;;;28.75;27.75;;;;;24.20;53.52;101883.41;5016961;28;45584;-74
2021/07/21 07:15:49;;;;;;;;;25.75;24.00;;;;;24.36;53.59;101884.00;5019562;28;45827;-73
2021/07/21 07:18:14;;;;;;;;;26.75;21.75;;;;;24.56;53.56;101887.47;5014239;28;46925;-74
2021/07/21 07:20:44;;;;;;;;;25.00;21.25;;;;;24.79;53.52;101892.34;5015354;28;45520;-74
2021/07/21 07:23:09;;;;;;;;;27.50;23.25;;;;;24.94;53.26;101886.66;5015247;28;45984;-70
2021/07/21 07:25:36;;;;;;;;;25.75;22.75;;;;;25.05;50.97;101891.38;5012012;28;45496;-73
2021/07/21 07:28:01;;;;;;;;;28.75;21.50;;;;;25.08;51.96;101885.53;5036535;28;47647;-70
2021/07/21 07:30:27;;;;;;;;;24.00;24.00;;;;;25.18;51.30;101887.78;5004224;28;45513;-69
2021/07/21 07:32:52;;;;;;;;;26.75;22.25;;;;;25.31;52.13;101886.84;5006969;28;45521;-69
2021/07/21 07:35:18;;;;;;;;;26.75;24.75;;;;;25.45;49.90;101885.69;5001800;28;45536;-71
2021/07/21 07:37:43;;;;;;;;;28.00;23.25;;;;;25.53;50.00;101890.81;5001221;28;46478;-69
2021/07/21 07:40:09;;;;;;;;;33.50;25.25;;;;;25.63;50.18;101886.81;5005425;28;45561;-68
2021/07/21 07:42:35;;;;;;;;;28.25;24.50;;;;;25.76;49.52;101889.38;5015263;28;45584;-70
2021/07/21 07:45:03;;;;;;;;;26.75;22.50;;;;;25.92;49.79;101890.72;5014839;28;45670;-70
2021/07/21 07:47:28;;;;;;;;;23.75;21.75;;;;;26.18;48.87;101879.59;5012894;28;45675;-71
2021/07/21 07:49:54;;;;;;;;;29.50;25.50;;;;;26.49;49.03;101877.78;5014733;28;45642;-73
2021/07/21 07:52:20;;;;;;;;;26.00;20.25;;;;;27.82;46.06;101880.41;5010755;28;45556;-68
2021/07/21 07:54:45;;;;;;;;;31.75;24.00;;;;;30.62;44.08;101872.63;5017663;28;45508;-67
2021/07/21 07:57:11;;;;;;;;;28.50;24.00;;;;;33.24;37.41;101871.38;5017654;28;46034;-67
2021/07/21 07:59:37;;;;;;;;;24.75;20.50;;;;;35.46;34.45;101879.06;5017823;28;45663;-73
2021/07/21 08:02:03;;;;;;;;;30.75;23.75;;;;;37.34;32.07;101885.94;5019033;28;45627;-67
2021/07/21 08:04:28;;;;;;;;;26.00;23.00;;;;;38.82;31.00;101882.00;5025195;28;45532;-66
2021/07/21 08:06:53;;;;;;;;;25.25;21.00;;;;;40.14;30.56;101890.66;5013934;28;45463;-73
2021/07/21 08:09:19;;;;;;;;;26.25;22.50;;;;;41.12;27.83;101893.16;5012666;28;45651;-69
2021/07/21 08:11:48;;;;;;;;;26.25;23.00;;;;;42.11;27.80;101901.22;5017454;28;45496;-70
2021/07/21 08:14:14;;;;;;;;;22.75;19.75;;;;;43.09;26.39;101892.59;5023543;28;45480;-67
2021/07/21 08:16:41;;;;;;;;;29.25;24.50;;;;;44.15;24.67;101897.31;5031830;28;47389;-66
2021/07/21 08:19:07;;;;;;;;;23.25;21.25;;;;;45.01;24.79;101902.56;5019605;28;45653;-73
2021/07/21 08:21:33;;;;;;;;;27.25;22.75;;;;;46.00;22.82;101899.03;5013075;28;45467;-68
2021/07/21 08:23:58;;;;;;;;;22.50;21.75;;;;;46.47;20.26;101898.09;5022398;28;45640;-72
2021/07/21 08:26:23;;;;;;;;;24.00;22.25;;;;;46.51;20.81;101901.75;5011257;28;45615;-67
2021/07/21 08:28:48;;;;;;;;;22.00;19.50;;;;;46.58;19.08;101907.50;5013605;28;45457;-74
2021/07/21 08:31:14;;;;;;;;;20.50;19.00;;;;;46.13;20.28;101906.94;5017162;28;45520;-66
2021/07/21 08:33:41;;;;;;;;;24.75;20.50;;;;;46.59;20.26;101908.28;5016558;28;45672;-71
2021/07/21 08:36:07;;;;;;;;;19.75;18.75;;;;;47.32;20.17;101909.28;5014520;28;46200;-71
2021/07/21 08:38:32;;;;;;;;;23.50;19.50;;;;;48.21;15.33;101907.06;5017500;28;45596;-67
2021/07/21 08:40:58;;;;;;;;;21.00;20.00;;;;;48.06;19.46;101900.44;5018450;28;45563;-71
2021/07/21 08:43:24;;;;;;;;;20.75;19.50;;;;;48.46;18.99;101898.97;5013502;28;45598;-72
2021/07/21 08:45:52;;;;;;;;;22.25;19.75;;;;;49.26;17.88;101907.81;5026962;28;45985;-72
2021/07/21 08:48:18;;;;;;;;;17.00;15.75;;;;;49.69;16.56;101904.56;5010969;28;45524;-68
2021/07/21 08:50:45;;;;;;;;;21.75;18.50;;;;;49.08;14.27;101898.44;5007627;28;45678;-68
2021/07/21 08:53:11;;;;;;;;;19.25;18.50;;;;;48.88;17.09;101901.44;5014251;28;45528;-71
2021/07/21 08:55:37;;;;;;;;;17.25;16.50;;;;;49.19;17.62;101893.75;5016879;28;47576;-67
2021/07/21 08:58:03;;;;;;;;;19.50;16.25;;;;;49.39;14.23;101897.13;5008789;28;45917;-68
2021/07/21 09:00:29;;;;;;;;;17.00;15.25;;;;;48.48;15.93;101890.19;5008238;28;45576;-71
2021/07/21 09:02:55;;;;;;;;;21.50;16.00;;;;;48.30;16.39;101893.59;5023903;28;45414;-71
2021/07/21 09:05:20;;;;;;;;;19.25;15.25;;;;;48.86;17.01;101884.19;5015912;28;46389;-69
2021/07/21 09:07:47;;;;;;;;;15.75;15.50;;;;;49.16;16.18;101896.50;5020893;28;45955;-73
2021/07/21 09:10:16;;;;;;;;;17.00;15.75;;;;;49.37;15.96;101890.28;5025457;28;45644;-71
2021/07/21 09:12:43;;;;;;;;;21.00;19.25;;;;;48.76;15.29;101896.09;5020598;28;45731;-67
2021/07/21 09:15:12;;;;;;;;;19.75;15.75;;;;;48.32;16.20;101896.00;5017766;28;45464;-73
2021/07/21 09:17:56;;;;;;;;;19.50;17.25;;;;;48.10;16.13;101892.06;5011070;28;45511;-71
2021/07/21 09:20:21;;;;;;;;;16.25;15.00;;;;;48.18;16.94;101903.00;5003989;28;45637;-71
2021/07/21 09:22:53;;;;;;;;;19.75;16.25;;;;;48.45;15.67;101898.16;5018679;28;45592;-69
2021/07/21 09:25:23;;;;;;;;;19.00;15.25;;;;;47.90;14.98;101900.63;5012982;28;46161;-71
2021/07/21 09:27:51;;;;;;;;;18.25;15.75;;;;;46.96;15.32;101900.25;5024177;28;45645;-72
2021/07/21 09:30:34;;;;;;;;;16.00;14.50;;;;;45.65;15.74;101892.28;5007805;28;45560;-70
2021/07/21 09:33:00;;;;;;;;;17.00;16.75;;;;;45.30;18.09;101896.94;5010205;28;45756;-72
2021/07/21 09:35:38;;;;;;;;;20.00;17.00;;;;;45.20;19.36;101889.94;5017788;28;45469;-71
2021/07/21 09:38:25;;;;;;;;;16.75;16.00;;;;;44.56;16.81;101894.50;5013738;28;45460;-71
2021/07/21 09:40:53;;;;;;;;;16.50;16.00;;;;;43.91;19.44;101888.97;5015230;28;45443;-72
2021/07/21 09:43:23;;;;;;;;;17.50;17.25;;;;;43.25;18.70;101884.41;5024395;28;45539;-70
2021/07/21 09:45:50;;;;;;;;;19.75;17.25;;;;;42.28;19.60;101894.75;5016413;28;46481;-69
2021/07/21 09:48:19;;;;;;;;;18.00;16.25;;;;;41.79;18.99;101888.81;5014225;28;45927;-67
2021/07/21 09:50:47;;;;;;;;;18.50;16.00;;;;;41.45;21.83;101901.69;5026587;28;45511;-71
2021/07/21 09:53:14;;;;;;;;;20.00;14.75;;;;;41.27;20.40;101887.06;5017740;28;45548;-71
2021/07/21 09:55:42;;;;;;;;;15.00;13.75;;;;;40.96;22.17;101887.31;5019738;28;45476;-71
2021/07/21 09:58:23;;;;;;;;;19.75;18.00;;;;;41.04;21.97;101880.91;5024558;28;45539;-71
2021/07/21 10:00:48;;;;;;;;;19.25;18.00;;;;;41.18;22.27;101881.56;5022163;28;45487;-72
2021/07/21 10:03:21;;;;;;;;;20.25;19.00;;;;;40.38;20.86;101892.19;5017742;28;45476;-73
2021/07/21 10:06:06;;;;;;;;;21.50;16.00;;;;;39.37;22.12;101878.19;5021614;28;47344;-71
2021/07/21 10:08:37;;;;;;;;;14.50;14.00;;;;;39.02;23.49;101879.91;5019086;28;45588;-71
2021/07/21 10:11:32;;;;;;;;;22.00;17.25;;;;;39.20;22.33;101878.09;5017999;28;45624;-71
2021/07/21 10:14:03;;;;;;;;;17.50;16.00;;;;;39.03;24.05;101879.59;5011769;28;45573;-71
2021/07/21 10:16:36;;;;;;;;;15.50;13.75;;;;;39.29;23.64;101882.50;5017971;28;46277;-72
2021/07/21 10:19:08;;;;;;;;;15.50;14.50;;;;;39.67;23.42;101878.47;5028345;28;45393;-71
2021/07/21 10:21:36;;;;;;;;;17.00;16.50;;;;;39.79;21.23;101878.72;5018422;28;45460;-67
2021/07/21 10:24:02;;;;;;;;;19.25;17.50;;;;;39.59;21.96;101871.75;5029684;28;45516;-67
2021/07/21 10:26:28;;;;;;;;;15.00;15.00;;;;;39.50;23.42;101873.69;5019920;28;46369;-67
2021/07/21 10:28:58;;;;;;;;;18.25;15.25;;;;;39.64;24.26;101876.34;5011831;28;45597;-71
2021/07/21 10:31:25;;;;;;;;;15.50;15.00;;;;;39.76;21.24;101873.78;5017939;28;45505;-71
2021/07/21 10:33:52;;;;;;;;;14.25;12.50;;;;;39.08;21.65;101876.69;5026593;28;45540;-67
2021/07/21 10:36:19;;;;;;;;;15.25;14.00;;;;;38.28;23.53;101881.88;5016775;28;46321;-73
2021/07/21 10:38:45;;;;;;;;;14.75;14.75;;;;;38.14;24.40;101878.31;5020113;28;45570;-70
2021/07/21 10:41:13;;;;;;;;;18.25;17.75;;;;;38.44;23.43;101867.72;5013259;28;45419;-73
2021/07/21 10:43:41;;;;;;;;;12.50;11.25;;;;;38.66;25.44;101869.72;5022750;28;45551;-66
2021/07/21 10:46:29;;;;;;;;;15.00;15.00;;;;;38.83;24.11;101874.56;5024115;28;46432;-71
2021/07/21 10:49:32;;;;;;;;;15.25;14.75;;;;;38.99;23.85;101875.00;5020568;28;45486;-68
2021/07/21 11:00:07;;;;;;;;;18.00;16.00;;;;;40.79;21.73;101861.25;5015953;28;45536;-68
2021/07/21 11:02:33;;;;;;;;;19.75;16.50;;;;;40.91;24.34;101865.31;5014619;28;45554;-72
2021/07/21 11:04:58;;;;;;;;;19.25;19.00;;;;;40.78;22.50;101865.16;5021753;28;45557;-72
2021/07/21 11:07:49;;;;;;;;;19.50;15.00;;;;;40.44;23.10;101856.84;5021243;28;46288;-74
2021/07/21 11:10:15;;;;;;;;;14.75;14.50;;;;;40.54;23.08;101853.75;5014652;28;45485;-71
2021/07/21 11:12:49;;;;;;;;;16.75;15.25;;;;;40.47;21.20;101861.75;5018921;28;45429;-72
2021/07/21 11:15:44;;;;;;;;;15.00;13.50;;;;;40.23;23.36;101863.00;5003407;28;45624;-66
2021/07/21 11:18:24;;;;;;;;;15.50;14.75;;;;;40.32;23.30;101852.78;5004061;28;46090;-69
2021/07/21 11:21:09;;;;;;;;;20.00;16.75;;;;;40.43;21.56;101856.03;5004587;28;45618;-72
2021/07/21 11:23:52;;;;;;;;;16.25;15.25;;;;;40.13;23.08;101855.00;4997785;28;45545;-72
2021/07/21 11:26:39;;;;;;;;;17.50;15.25;;;;;40.33;22.54;101851.63;5010937;28;45575;-67
2021/07/21 11:29:25;;;;;;;;;16.00;15.00;;;;;40.75;23.31;101843.63;5010682;28;47722;-73